Time;durP1;ratioP1;P1;durP2;ratioP2;P2;SDS_P1;SDS_P2;PMS_P1;PMS_P2;Temp;Humidity;BMP_temperature;BMP_pressure;BME280_temperature;BME280_humidity;BME280_pressure;Samples;Min_cycle;Max_cycle;Signal;HPM_P1;HPM_P2
2022/09/06 00:00:10;;;;;;;3.38;2.10;;;;;;;24.10;51.52;101632.28;5050711;28;20088;-76
2022/09/06 00:02:36;;;;;;;2.97;1.90;;;;;;;24.10;51.68;101636.69;5069715;28;20134;-76
2022/09/06 00:05:02;;;;;;;3.83;2.10;;;;;;;24.11;51.65;101643.69;5050764;28;20057;-76
2022/09/06 00:07:28;;;;;;;4.45;1.95;;;;;;;24.09;51.83;101643.72;5069706;28;20078;-76
2022/09/06 00:09:56;;;;;;;4.03;1.65;;;;;;;24.10;51.66;101647.19;5084197;28;20036;-76
2022/09/06 00:12:23;;;;;;;4.20;1.88;;;;;;;24.11;51.53;101641.06;5070952;28;20049;-76
2022/09/06 00:14:49;;;;;;;2.95;1.88;;;;;;;24.10;51.53;101641.94;5069333;28;20060;-76
2022/09/06 00:17:14;;;;;;;3.63;1.83;;;;;;;24.10;51.98;101655.09;5057381;28;20043;-78
2022/09/06 00:22:05;;;;;;;3.90;2.05;;;;;;;24.10;51.65;101649.84;5075580;28;20048;-80
2022/09/06 00:24:30;;;;;;;2.20;1.65;;;;;;;24.10;51.58;101642.81;5062055;28;20056;-81
2022/09/06 00:26:56;;;;;;;4.25;2.05;;;;;;;24.11;51.54;101635.81;5043575;28;20494;-80
2022/09/06 00:29:21;;;;;;;2.20;1.60;;;;;;;24.11;51.94;101635.81;5062651;28;20061;-79
2022/09/06 00:31:46;;;;;;;4.20;1.88;;;;;;;24.11;52.01;101635.81;5057934;28;20045;-79
2022/09/06 00:34:12;;;;;;;3.88;1.63;;;;;;;24.10;51.99;101642.81;5059051;28;20056;-81
2022/09/06 00:36:37;;;;;;;2.58;1.77;;;;;;;24.11;52.07;101641.91;5040004;28;20051;-79
2022/09/06 00:39:03;;;;;;;3.13;1.80;;;;;;;24.11;51.66;101639.28;5055718;28;20044;-79
2022/09/06 00:41:31;;;;;;;2.97;1.70;;;;;;;24.11;51.80;101643.69;5057237;28;20120;-79
2022/09/06 00:43:57;;;;;;;2.65;1.80;;;;;;;24.11;51.81;101646.31;5082437;28;20032;-80
2022/09/06 00:46:25;;;;;;;3.90;1.90;;;;;;;24.11;51.89;101665.59;5058262;28;20095;-81
2022/09/06 00:48:56;;;;;;;2.67;1.83;;;;;;;24.11;51.91;101681.38;5061545;28;20045;-80
2022/09/06 00:51:24;;;;;;;3.92;2.00;;;;;;;24.10;52.12;101689.28;5059396;28;20048;-80
2022/09/06 00:53:50;;;;;;;4.05;1.55;;;;;;;24.11;52.15;101701.53;5089662;28;20048;-80
2022/09/06 00:56:15;;;;;;;2.30;1.60;;;;;;;24.11;51.98;101694.50;5058641;28;20048;-80
2022/09/06 00:58:41;;;;;;;2.83;1.45;;;;;;;24.11;51.82;101706.81;5073540;28;20059;-80
2022/09/06 01:01:07;;;;;;;3.22;1.60;;;;;;;24.11;51.96;101718.19;5047951;28;20052;-81
2022/09/06 01:03:33;;;;;;;2.38;1.60;;;;;;;24.11;51.95;101705.03;5061988;28;20060;-80
2022/09/06 01:06:21;;;;;;;2.63;1.73;;;;;;;24.11;52.13;101693.66;5081748;28;20048;-81
2022/09/06 01:09:27;;;;;;;2.75;1.80;;;;;;;24.11;52.29;101693.66;5091043;28;20044;-81
2022/09/06 01:12:01;;;;;;;2.35;1.48;;;;;;;24.10;52.04;101663.84;5089662;28;20044;-81
2022/09/06 01:17:31;;;;;;;3.40;1.95;;;;;;;24.11;52.18;101680.50;5078178;28;20053;-80
2022/09/06 01:20:24;;;;;;;2.35;1.55;;;;;;;24.12;52.35;101671.69;5058091;28;20044;-81
2022/09/06 01:23:17;;;;;;;2.50;1.60;;;;;;;24.11;51.89;101677.88;5057433;28;20049;-81
2022/09/06 01:26:01;;;;;;;3.13;1.57;;;;;;;24.11;52.18;101675.25;5058538;28;20048;-81
2022/09/06 01:28:36;;;;;;;2.17;1.63;;;;;;;24.10;52.23;101668.25;5069761;28;20317;-81
2022/09/06 01:31:05;;;;;;;5.95;1.63;;;;;;;24.11;51.86;101672.63;5065822;28;20056;-81
2022/09/06 01:36:12;;;;;;;2.47;1.55;;;;;;;24.09;52.14;101662.13;5077440;28;20057;-81
2022/09/06 01:38:37;;;;;;;2.38;1.75;;;;;;;24.10;52.32;101657.72;5077699;28;20044;-81
2022/09/06 01:41:03;;;;;;;2.38;1.60;;;;;;;24.10;52.17;101644.56;5057555;28;20060;-81
2022/09/06 01:43:34;;;;;;;2.00;1.45;;;;;;;24.09;52.09;101641.09;5060338;28;20100;-81
2022/09/06 01:46:23;;;;;;;2.85;1.50;;;;;;;24.10;52.06;101631.44;5054174;28;21263;-80
2022/09/06 01:49:16;;;;;;;2.38;1.52;;;;;;;24.11;52.02;101625.28;5071094;28;20039;-80
2022/09/06 01:52:07;;;;;;;2.40;1.60;;;;;;;24.10;51.99;101619.13;5055276;28;20048;-80
2022/09/06 01:54:40;;;;;;;5.65;1.60;;;;;;;24.09;51.76;101611.31;5074219;28;20052;-81
2022/09/06 01:57:17;;;;;;;2.70;1.40;;;;;;;24.09;51.60;101600.78;5046686;28;20085;-81
2022/09/06 02:00:08;;;;;;;2.08;1.45;;;;;;;24.09;52.00;101595.53;5054415;28;20044;-81
2022/09/06 02:05:10;;;;;;;2.42;1.50;;;;;;;24.10;51.79;101587.59;5070754;28;20830;-80
2022/09/06 02:07:38;;;;;;;2.72;1.38;;;;;;;24.08;51.75;101586.75;5055764;28;20040;-81
2022/09/06 02:10:25;;;;;;;1.98;1.30;;;;;;;24.09;51.61;101593.75;5056008;28;20060;-81
2022/09/06 02:12:55;;;;;;;2.65;1.40;;;;;;;24.09;52.05;101596.38;5057266;28;20045;-80
2022/09/06 02:15:26;;;;;;;1.88;1.35;;;;;;;24.08;51.93;101588.53;5069113;28;20033;-81
2022/09/06 02:18:01;;;;;;;2.03;1.48;;;;;;;24.09;51.64;101582.38;5072793;28;20040;-81
2022/09/06 02:20:31;;;;;;;3.72;1.60;;;;;;;24.08;51.97;101580.63;5066215;28;20044;-82
2022/09/06 02:23:02;;;;;;;2.50;1.30;;;;;;;24.08;51.88;101583.28;5074071;28;20029;-81
2022/09/06 02:25:37;;;;;;;4.03;1.50;;;;;;;24.09;51.84;101582.38;5068145;28;20049;-82
2022/09/06 02:28:02;;;;;;;1.98;1.30;;;;;;;24.08;51.47;101578.00;5090541;28;20040;-81
2022/09/06 02:30:28;;;;;;;3.60;1.27;;;;;;;24.09;51.56;101574.50;5069939;28;20055;-81
2022/09/06 02:33:02;;;;;;;1.83;1.40;;;;;;;24.07;51.72;101566.63;5058358;28;20048;-81
2022/09/06 02:35:28;;;;;;;3.10;1.27;;;;;;;24.08;51.79;101572.75;5091469;28;20132;-81
2022/09/06 02:37:55;;;;;;;2.40;1.27;;;;;;;24.08;51.62;101576.25;5055314;28;20558;-80
2022/09/06 02:40:21;;;;;;;2.60;1.48;;;;;;;24.08;51.50;101585.91;5043058;28;20128;-81
2022/09/06 02:42:46;;;;;;;2.63;1.50;;;;;;;24.08;51.51;101578.00;5040301;28;20068;-79
2022/09/06 02:45:12;;;;;;;2.45;1.23;;;;;;;24.08;51.83;101572.75;5060832;28;20052;-80
2022/09/06 02:47:37;;;;;;;2.10;1.38;;;;;;;24.07;51.77;101576.31;5075010;28;20048;-80
2022/09/06 02:50:02;;;;;;;1.95;1.30;;;;;;;24.07;51.72;101577.16;5057214;28;20084;-80
2022/09/06 02:52:28;;;;;;;3.10;1.45;;;;;;;24.07;51.42;101573.66;5059904;28;20040;-81
2022/09/06 02:54:53;;;;;;;1.90;1.20;;;;;;;24.07;51.44;101568.41;5057105;28;20044;-81
2022/09/06 02:57:19;;;;;;;2.22;1.23;;;;;;;24.06;51.48;101572.78;5062743;28;20048;-80
2022/09/06 02:59:45;;;;;;;1.27;1.00;;;;;;;24.07;51.42;101573.66;5060116;28;20043;-80
2022/09/06 03:02:10;;;;;;;4.28;1.35;;;;;;;24.07;51.62;101577.16;5072455;28;20116;-82
2022/09/06 03:04:36;;;;;;;1.98;1.30;;;;;;;24.06;51.39;101572.78;5069940;28;20032;-80
2022/09/06 03:07:04;;;;;;;1.25;1.02;;;;;;;24.07;51.84;101581.56;5009895;28;1373120;-80
2022/09/06 03:09:29;;;;;;;1.70;1.20;;;;;;;24.06;51.48;101585.94;5060880;28;20028;-80
2022/09/06 03:11:54;;;;;;;1.88;1.27;;;;;;;24.07;51.62;101586.81;5039981;28;20048;-80
2022/09/06 03:14:20;;;;;;;2.88;1.40;;;;;;;24.06;51.46;101585.94;5058219;28;20044;-79
2022/09/06 03:16:45;;;;;;;1.88;1.30;;;;;;;24.06;51.22;101588.56;5050587;28;20044;-81
2022/09/06 03:19:10;;;;;;;2.08;1.20;;;;;;;24.07;51.42;101586.81;5047394;28;20074;-81
2022/09/06 03:21:36;;;;;;;2.08;1.30;;;;;;;24.07;51.41;101586.81;5046037;28;20044;-80
2022/09/06 03:24:01;;;;;;;2.88;1.45;;;;;;;24.06;51.17;101585.06;5079912;28;21124;-81
2022/09/06 03:26:28;;;;;;;2.05;1.13;;;;;;;24.06;51.67;101578.03;5071574;28;20044;-81
2022/09/06 03:28:54;;;;;;;1.88;1.38;;;;;;;24.06;51.30;101585.94;5064132;28;20048;-81
2022/09/06 03:31:19;;;;;;;3.22;1.20;;;;;;;24.06;51.09;101585.06;5084416;28;20118;-81
2022/09/06 03:33:45;;;;;;;3.65;1.38;;;;;;;24.06;51.25;101587.69;5064419;28;20118;-81
2022/09/06 03:36:10;;;;;;;1.92;1.20;;;;;;;24.05;51.01;101586.00;5061278;28;20375;-80
2022/09/06 03:38:35;;;;;;;2.35;1.40;;;;;;;24.06;51.44;101587.69;5045579;28;20048;-81
2022/09/06 03:41:01;;;;;;;2.22;1.42;;;;;;;24.05;51.35;101589.47;5066703;28;20055;-81
2022/09/06 03:43:27;;;;;;;2.22;1.20;;;;;;;24.06;51.06;101593.81;5063313;28;20060;-81
2022/09/06 03:45:55;;;;;;;2.88;1.60;;;;;;;24.05;51.27;101588.63;5092672;28;20055;-82
2022/09/06 03:48:22;;;;;;;2.20;1.40;;;;;;;24.06;51.29;101600.84;5076277;28;20403;-81
2022/09/06 03:50:50;;;;;;;1.38;1.10;;;;;;;24.05;51.07;101601.75;5064138;28;20032;-81
2022/09/06 03:53:17;;;;;;;1.90;1.30;;;;;;;24.06;51.40;101606.97;5081944;28;20049;-81
2022/09/06 03:55:52;;;;;;;2.50;1.30;;;;;;;24.06;51.12;101609.59;5058244;28;20144;-81
2022/09/06 03:58:19;;;;;;;1.70;1.20;;;;;;;24.05;51.34;101610.50;5060632;28;20052;-80
2022/09/06 04:00:44;;;;;;;2.63;1.40;;;;;;;24.05;51.06;101621.03;5057573;28;20044;-81
2022/09/06 04:03:10;;;;;;;2.42;1.33;;;;;;;24.05;51.13;101628.91;5040292;28;20056;-81
2022/09/06 04:05:36;;;;;;;1.50;1.13;;;;;;;24.06;51.11;101642.91;5057252;28;20040;-81
2022/09/06 04:08:02;;;;;;;1.85;1.23;;;;;;;24.06;50.92;101650.81;5038247;28;20052;-81
2022/09/06 04:10:27;;;;;;;2.90;1.10;;;;;;;24.04;51.44;101656.13;5057752;28;20119;-81
2022/09/06 04:12:53;;;;;;;2.17;1.23;;;;;;;24.04;50.99;101640.34;5054923;28;20075;-81
2022/09/06 04:15:18;;;;;;;1.75;1.13;;;;;;;24.05;51.13;101635.94;5061168;28;20249;-80
2022/09/06 04:17:45;;;;;;;1.55;1.10;;;;;;;24.05;51.33;101646.47;5058459;28;20601;-80
2022/09/06 04:20:12;;;;;;;1.40;1.02;;;;;;;24.06;51.09;101653.44;5052562;28;20040;-80
2022/09/06 04:22:37;;;;;;;3.40;1.30;;;;;;;24.05;51.09;101649.09;5041936;28;20510;-81
2022/09/06 04:25:04;;;;;;;1.33;1.10;;;;;;;24.06;51.20;101648.19;5073372;28;20045;-81
2022/09/06 04:27:29;;;;;;;3.08;1.08;;;;;;;24.05;50.99;101643.84;5076026;28;20063;-81
2022/09/06 04:29:55;;;;;;;1.83;1.27;;;;;;;24.05;50.89;101646.47;5053990;28;20482;-81
2022/09/06 04:32:21;;;;;;;2.50;1.35;;;;;;;24.05;51.06;101642.06;5075446;28;20064;-81
2022/09/06 04:34:46;;;;;;;2.22;1.30;;;;;;;24.03;50.92;101649.97;5058384;28;20139;-81
2022/09/06 04:37:13;;;;;;;1.70;1.10;;;;;;;24.04;51.21;101650.88;5081555;28;20391;-80
2022/09/06 04:39:39;;;;;;;3.38;1.30;;;;;;;24.04;51.09;101645.59;5092925;28;20043;-80
2022/09/06 04:42:04;;;;;;;2.05;1.20;;;;;;;24.05;50.85;101641.22;5067155;28;20873;-82
2022/09/06 04:44:29;;;;;;;1.77;1.20;;;;;;;24.04;51.15;101624.56;5095132;28;20024;-80
2022/09/06 04:47:11;;;;;;;1.80;1.13;;;;;;;24.06;51.20;101627.13;5080209;28;20131;-81
2022/09/06 04:49:37;;;;;;;2.25;1.23;;;;;;;24.06;51.26;101624.50;5078019;28;20053;-80
2022/09/06 04:52:03;;;;;;;1.70;1.10;;;;;;;24.07;51.14;101628.88;5074026;28;20079;-81
2022/09/06 05:11:24;;;;;;;7.07;3.40;;;;;;;23.62;52.15;101619.38;5006699;28;20044;-82
2022/09/06 05:20:04;;;;;;;7.85;3.13;;;;;;;23.38;52.72;101599.75;4817483;23;20148;-78
2022/09/06 05:22:30;;;;;;;5.68;2.80;;;;;;;23.39;52.74;101589.22;4975475;28;20058;-77
2022/09/06 05:24:55;;;;;;;6.20;2.70;;;;;;;23.38;53.08;101578.75;4950569;28;20054;-78
2022/09/06 05:27:20;;;;;;;4.93;3.15;;;;;;;23.37;52.97;101579.66;4976423;28;20058;-77
2022/09/06 05:29:46;;;;;;;9.57;2.55;;;;;;;23.33;53.39;101575.38;4962859;28;20138;-81
2022/09/06 05:32:11;;;;;;;4.90;3.00;;;;;;;23.33;53.32;101572.75;4956322;28;20077;-85
2022/09/06 05:34:36;;;;;;;9.38;3.70;;;;;;;23.35;53.23;101571.81;4956220;28;20061;-80
2022/09/06 05:37:02;;;;;;;8.95;3.42;;;;;;;23.32;53.23;101558.75;4951276;28;20110;-79
2022/09/06 05:39:27;;;;;;;6.90;3.55;;;;;;;23.30;53.42;101554.41;4973307;28;20035;-79
2022/09/06 05:41:52;;;;;;;8.82;3.72;;;;;;;23.32;53.39;101563.13;4955187;28;20058;-79
2022/09/06 05:44:18;;;;;;;11.38;3.50;;;;;;;23.26;53.45;101568.53;4970089;28;20065;-79
2022/09/06 05:46:44;;;;;;;7.90;3.67;;;;;;;23.25;53.81;101569.41;4952776;28;20137;-79
2022/09/06 05:49:11;;;;;;;10.45;3.58;;;;;;;23.26;53.29;101572.00;4968208;28;20077;-80
2022/09/06 05:51:37;;;;;;;12.32;3.60;;;;;;;23.22;53.71;101565.09;4985046;28;20142;-80
2022/09/06 05:54:03;;;;;;;5.13;3.20;;;;;;;23.23;53.47;101577.31;4973822;28;20141;-80
2022/09/06 05:56:28;;;;;;;9.38;3.40;;;;;;;23.26;53.65;101572.00;4976003;28;20046;-80
2022/09/06 05:58:54;;;;;;;14.10;3.55;;;;;;;23.28;53.63;101564.06;4974663;28;20054;-79
2022/09/06 06:01:20;;;;;;;11.65;3.70;;;;;;;23.23;53.70;101564.19;4978157;28;20042;-79
2022/09/06 06:03:51;;;;;;;7.72;3.38;;;;;;;23.26;53.93;101566.75;4973212;28;20125;-79
2022/09/06 06:07:17;;;;;;;6.32;3.40;;;;;;;23.26;53.67;101565.91;4955449;28;20393;-86
2022/09/06 06:49:23;;;;;;;4.43;2.07;;;;;;;25.10;48.23;101552.44;5918549;23;20229;-80
2022/09/06 06:51:49;;;;;;;2.95;1.73;;;;;;;25.32;47.32;101550.06;4912312;29;20285;-84
2022/09/06 06:54:14;;;;;;;3.13;1.77;;;;;;;25.37;47.47;101550.75;4915499;29;20069;-85
2022/09/06 06:56:40;;;;;;;3.20;1.90;;;;;;;25.44;47.41;101541.78;4911304;29;20053;-83
2022/09/06 06:59:06;;;;;;;4.72;2.00;;;;;;;25.41;47.41;101542.75;4922015;29;20093;-84
2022/09/06 07:01:33;;;;;;;3.10;2.00;;;;;;;25.25;47.69;101544.97;4916441;29;20053;-84
2022/09/06 07:03:59;;;;;;;2.92;1.90;;;;;;;25.24;47.89;101540.63;4912689;29;20033;-84
2022/09/06 07:06:29;;;;;;;2.72;1.70;;;;;;;25.18;47.94;101545.19;4917959;29;20080;-85
2022/09/06 07:08:58;;;;;;;3.03;1.88;;;;;;;25.19;47.87;101539.00;4911525;29;20048;-84
2022/09/06 07:29:30;;;;;;;3.67;1.77;;;;;;;25.23;48.16;101554.69;5868743;23;20464;-79
2022/09/06 07:31:56;;;;;;;3.03;1.70;;;;;;;25.23;48.08;101548.56;4875729;29;20047;-76
2022/09/06 07:34:24;;;;;;;2.42;1.55;;;;;;;25.23;47.91;101549.41;4911437;29;20431;-77
2022/09/06 07:36:54;;;;;;;2.60;1.77;;;;;;;25.28;47.93;101553.69;4892014;29;20143;-77
2022/09/06 07:39:19;;;;;;;2.15;1.50;;;;;;;25.30;47.57;101551.88;4874954;29;20060;-77
2022/09/06 07:41:45;;;;;;;2.75;1.80;;;;;;;25.28;47.92;101559.81;4873364;29;20495;-78
2022/09/06 07:44:10;;;;;;;2.22;1.60;;;;;;;25.29;47.85;101558.06;4877393;29;20036;-77
2022/09/06 07:46:37;;;;;;;2.42;1.50;;;;;;;25.28;47.65;101554.53;4855431;29;20499;-77
2022/09/06 07:49:04;;;;;;;1.90;1.30;;;;;;;25.27;47.88;101549.34;4868505;29;20055;-77
2022/09/06 07:51:30;;;;;;;1.90;1.38;;;;;;;25.15;47.89;101545.25;4890366;29;20045;-77
2022/09/06 07:53:56;;;;;;;2.55;1.63;;;;;;;24.99;48.45;101544.88;4888085;29;20044;-77
2022/09/06 07:56:22;;;;;;;2.22;1.52;;;;;;;24.99;48.72;101544.88;4889937;29;20062;-77
2022/09/06 07:58:48;;;;;;;1.55;1.30;;;;;;;25.08;48.35;101541.09;4857743;29;20116;-77
2022/09/06 08:01:29;;;;;;;2.72;1.60;;;;;;;25.08;48.39;101543.72;4867789;29;20147;-77
2022/09/06 08:03:56;;;;;;;3.55;1.70;;;;;;;25.09;48.48;101537.56;4866900;29;20131;-77
2022/09/06 08:06:22;;;;;;;2.28;1.40;;;;;;;25.07;48.47;101532.34;4889349;29;20080;-77
2022/09/06 08:08:49;;;;;;;2.45;1.42;;;;;;;25.03;48.30;101541.25;4889767;29;20567;-77
2022/09/06 08:11:14;;;;;;;2.35;1.60;;;;;;;25.04;48.44;101520.13;4875142;29;20404;-77
2022/09/06 08:13:41;;;;;;;2.03;1.50;;;;;;;25.04;48.33;101527.16;4892507;29;20036;-78
2022/09/06 08:16:09;;;;;;;3.15;1.63;;;;;;;25.00;48.67;101525.53;4879774;29;20056;-77
2022/09/06 08:18:36;;;;;;;2.58;1.40;;;;;;;25.03;48.55;101528.06;4897149;29;20410;-77
2022/09/06 08:21:14;;;;;;;2.45;1.50;;;;;;;24.93;48.58;101532.72;4889802;29;20096;-77
2022/09/06 08:23:43;;;;;;;3.22;1.45;;;;;;;24.90;48.86;101537.25;4890281;29;20050;-78
2022/09/06 08:26:09;;;;;;;2.08;1.40;;;;;;;24.95;48.48;101537.97;4877657;29;20068;-78
2022/09/06 08:28:34;;;;;;;2.00;1.45;;;;;;;24.92;48.56;101541.56;4895076;29;20082;-77
2022/09/06 08:31:08;;;;;;;1.80;1.40;;;;;;;24.90;48.56;101545.16;4858177;29;20080;-77
2022/09/06 08:33:34;;;;;;;1.75;1.52;;;;;;;24.80;48.60;101548.06;4873763;29;20143;-77
2022/09/06 08:36:00;;;;;;;2.95;1.70;;;;;;;24.71;49.34;101539.53;4861217;29;20048;-77
2022/09/06 08:38:26;;;;;;;1.80;1.30;;;;;;;24.63;49.24;101538.00;4806250;29;1266878;-76
2022/09/06 08:40:54;;;;;;;1.83;1.30;;;;;;;24.60;49.59;101545.09;4887335;29;20111;-77
2022/09/06 08:43:21;;;;;;;2.78;1.63;;;;;;;24.61;49.51;101546.84;4887599;29;20064;-77
2022/09/06 08:45:54;;;;;;;2.75;1.60;;;;;;;24.63;49.58;101545.03;4887057;29;20052;-77
2022/09/06 08:48:20;;;;;;;2.45;1.60;;;;;;;24.62;49.69;101538.03;4908328;29;20073;-77
2022/09/06 08:51:19;;;;;;;2.35;1.60;;;;;;;24.70;49.23;101545.72;4873341;29;20103;-77
2022/09/06 08:53:45;;;;;;;2.00;1.58;;;;;;;24.74;49.34;101542.94;4903670;29;20063;-77
2022/09/06 08:56:28;;;;;;;1.50;1.25;;;;;;;24.75;49.09;101542.03;4864095;29;20056;-77
2022/09/06 08:59:05;;;;;;;1.83;1.50;;;;;;;24.73;49.06;101535.94;4893919;29;20127;-77
2022/09/06 09:04:11;;;;;;;2.25;1.40;;;;;;;24.74;49.03;101529.78;4910981;29;20056;-77
2022/09/06 09:06:37;;;;;;;1.50;1.30;;;;;;;24.75;49.25;101530.66;4894028;29;20070;-77
2022/09/06 09:09:09;;;;;;;2.10;1.40;;;;;;;24.73;49.35;101530.69;4872678;29;20491;-77
2022/09/06 09:11:36;;;;;;;1.70;1.37;;;;;;;24.72;49.18;101528.97;4889488;29;20057;-77
2022/09/06 09:14:22;;;;;;;1.60;1.38;;;;;;;24.72;49.32;101528.13;4891939;29;20055;-76
2022/09/06 09:16:52;;;;;;;3.10;1.38;;;;;;;24.73;49.13;101516.66;4888134;29;20128;-79
2022/09/06 09:19:17;;;;;;;1.63;1.38;;;;;;;24.73;49.14;101512.25;4892632;29;20071;-77
2022/09/06 09:21:43;;;;;;;1.95;1.40;;;;;;;24.73;49.19;101519.31;4889303;29;20056;-77
2022/09/06 09:24:11;;;;;;;1.58;1.25;;;;;;;24.70;49.12;101512.34;4871281;29;20052;-77
2022/09/06 09:29:08;;;;;;;2.00;1.48;;;;;;;24.66;49.18;101515.13;4898971;29;20885;-76
2022/09/06 09:31:40;;;;;;;1.73;1.27;;;;;;;24.68;49.45;101511.53;4891641;29;20411;-77
2022/09/06 09:34:11;;;;;;;1.63;1.17;;;;;;;24.69;49.18;101515.03;4891477;29;20061;-77
2022/09/06 09:36:36;;;;;;;2.15;1.40;;;;;;;24.67;49.09;101522.09;4891937;29;20135;-77
2022/09/06 09:39:11;;;;;;;1.70;1.40;;;;;;;24.67;49.30;101522.97;4886281;29;20049;-78
2022/09/06 09:44:09;;;;;;;1.50;1.10;;;;;;;24.68;49.20;101524.69;4908133;29;21257;-77
2022/09/06 09:46:37;;;;;;;1.63;1.30;;;;;;;24.67;49.57;101525.59;4907735;29;20052;-77
2022/09/06 09:49:03;;;;;;;1.77;1.23;;;;;;;24.67;49.56;101530.00;4902420;29;20049;-77
2022/09/06 09:51:30;;;;;;;1.45;1.27;;;;;;;24.64;49.18;101523.91;4887152;29;20048;-77
2022/09/06 09:54:02;;;;;;;2.08;1.20;;;;;;;24.64;49.03;101533.59;4871055;29;20449;-77
2022/09/06 09:59:33;;;;;;;1.75;1.13;;;;;;;24.62;49.33;101545.91;4901364;29;20048;-77
2022/09/06 10:02:00;;;;;;;1.98;1.33;;;;;;;24.61;49.58;101546.84;4904053;29;20052;-77
2022/09/06 10:04:37;;;;;;;1.30;1.20;;;;;;;24.61;49.41;101542.44;4890452;29;20411;-77
2022/09/06 10:07:23;;;;;;;2.22;1.45;;;;;;;24.61;49.51;101542.44;4902092;29;20053;-77
2022/09/06 10:10:09;;;;;;;1.75;1.20;;;;;;;24.61;49.50;101547.69;4886037;29;20053;-77
2022/09/06 10:15:06;;;;;;;1.50;1.23;;;;;;;24.61;49.70;101560.84;4905882;29;20112;-77
2022/09/06 10:20:08;;;;;;;2.00;1.27;;;;;;;24.63;49.21;101568.72;4909474;29;21257;-77
2022/09/06 10:25:13;;;;;;;1.55;1.38;;;;;;;24.59;49.33;101567.94;4906769;29;20239;-76
2022/09/06 10:30:07;;;;;;;2.97;1.33;;;;;;;24.58;49.51;101563.56;4906590;29;20192;-77
2022/09/06 10:32:41;;;;;;;1.77;1.20;;;;;;;24.59;49.73;101569.69;4890992;29;20053;-77
2022/09/06 10:35:23;;;;;;;1.60;1.13;;;;;;;24.59;49.64;101567.06;4901267;29;20503;-78
2022/09/06 10:38:10;;;;;;;1.90;1.30;;;;;;;24.61;49.49;101573.16;4900250;29;20517;-77
2022/09/06 10:43:08;;;;;;;2.65;1.00;;;;;;;24.61;49.54;101567.91;4918205;29;20204;-77
2022/09/06 10:48:12;;;;;;;1.67;1.30;;;;;;;24.62;49.55;101553.81;4909431;29;20057;-77
2022/09/06 10:53:12;;;;;;;1.65;1.30;;;;;;;24.62;49.20;101569.59;4900682;29;21963;-77
2022/09/06 10:58:05;;;;;;;1.30;1.17;;;;;;;24.62;49.33;101567.81;4904040;29;21345;-77
2022/09/06 11:03:18;;;;;;;1.30;1.10;;;;;;;24.62;49.46;101575.72;4934361;29;20111;-84
2022/09/06 11:06:00;;;;;;;3.53;1.40;;;;;;;24.62;49.55;101578.34;4930076;29;20055;-84
2022/09/06 11:11:15;;;;;;;1.50;1.10;;;;;;;24.64;49.11;101594.13;4945321;29;20103;-84
2022/09/06 11:13:41;;;;;;;1.45;1.20;;;;;;;24.65;48.98;101590.59;4938218;29;20039;-82
2022/09/06 11:16:16;;;;;;;1.73;1.20;;;;;;;24.67;49.28;101594.00;4946725;29;20862;-84
2022/09/06 11:18:55;;;;;;;1.63;1.10;;;;;;;24.66;49.07;101588.81;4935677;29;20076;-81
2022/09/06 11:24:10;;;;;;;;;;;;;;;24.62;49.15;101586.25;4938172;29;20048;-84
2022/09/06 11:29:09;;;;;;;1.55;1.20;;;;;;;24.61;49.27;101592.44;4926716;29;20056;-84
2022/09/06 11:34:17;;;;;;;2.65;1.13;;;;;;;24.60;49.33;101584.56;4929812;28;20052;-84
2022/09/06 11:37:23;;;;;;;1.35;1.08;;;;;;;24.58;49.31;101584.59;4938705;28;20108;-83
2022/09/06 11:40:11;;;;;;;1.17;1.08;;;;;;;24.60;49.40;101592.47;4934976;28;20060;-84
2022/09/06 11:45:05;;;;;;;2.05;1.30;;;;;;;24.59;49.69;101598.66;4920367;29;20965;-84
2022/09/06 11:47:35;;;;;;;2.33;1.23;;;;;;;24.59;49.59;101596.88;4933052;29;20051;-83
2022/09/06 11:50:19;;;;;;;1.60;1.15;;;;;;;24.59;49.38;101593.38;4938169;29;20061;-84
2022/09/06 11:52:54;;;;;;;2.03;1.10;;;;;;;24.59;49.29;101588.13;4935831;29;20047;-84
2022/09/06 11:55:38;;;;;;;1.58;1.20;;;;;;;24.58;49.51;101597.75;4924009;29;20036;-84
2022/09/06 11:58:11;;;;;;;1.30;1.10;;;;;;;24.59;49.43;101599.50;4936434;29;20040;-83
2022/09/06 12:03:08;;;;;;;1.30;1.20;;;;;;;24.61;49.51;101594.22;4902250;29;20048;-84
2022/09/06 12:08:26;;;;;;;1.30;1.05;;;;;;;24.61;49.46;101605.59;4905492;29;20057;-77
2022/09/06 12:11:03;;;;;;;1.83;1.15;;;;;;;24.61;49.33;101605.59;4904679;29;20051;-76
2022/09/06 12:16:05;;;;;;;2.05;1.10;;;;;;;24.62;49.31;101594.16;4930280;29;20125;-77
2022/09/06 12:21:04;;;;;;;1.83;1.20;;;;;;;24.62;49.27;101606.44;4925629;29;20060;-77
2022/09/06 12:23:36;;;;;;;1.77;1.30;;;;;;;24.63;49.39;101609.03;4919032;29;20062;-77
2022/09/06 12:26:06;;;;;;;1.20;1.02;;;;;;;24.64;48.95;101607.28;4928945;29;20093;-77
2022/09/06 12:31:23;;;;;;;;;;;;;;;24.64;49.47;101597.59;4922215;29;20052;-77
2022/09/06 12:33:51;;;;;;;1.77;1.30;;;;;;;24.66;49.29;101599.34;4919695;29;20288;-83
2022/09/06 12:36:22;;;;;;;1.45;1.20;;;;;;;24.66;49.67;101604.59;4915409;29;20032;-84
2022/09/06 12:38:58;;;;;;;1.95;1.70;;;;;;;24.66;49.67;101594.09;4929293;29;20048;-81
2022/09/06 12:41:27;;;;;;;1.67;1.20;;;;;;;24.65;49.65;101587.97;4950044;28;20549;-84
2022/09/06 13:02:16;;;;;;;2.13;1.30;;;;;;;24.69;49.72;101568.53;4913858;29;20060;-85
2022/09/06 13:08:07;;;;;;;1.88;1.13;;;;;;;24.72;49.60;101570.22;4939163;29;20064;-85
2022/09/06 13:13:54;;;;;;;1.75;1.30;;;;;;;24.73;49.70;101561.41;4950733;29;20083;-85
2022/09/06 13:40:40;;;;;;;1.73;1.15;;;;;;;24.76;49.36;101533.25;5437035;23;1400897;-77
2022/09/06 13:43:10;;;;;;;2.83;1.45;;;;;;;24.76;49.31;101541.16;4887920;29;20068;-77
2022/09/06 13:45:36;;;;;;;2.08;1.20;;;;;;;24.76;49.42;101535.88;4856564;29;20515;-77
2022/09/06 13:48:02;;;;;;;1.75;1.33;;;;;;;24.77;49.86;101542.00;4868904;29;20060;-77
2022/09/06 13:50:27;;;;;;;1.88;1.30;;;;;;;24.77;49.81;101548.13;4872340;29;20064;-77
2022/09/06 13:52:53;;;;;;;1.33;1.20;;;;;;;24.77;49.76;101544.63;4867340;29;20084;-77
2022/09/06 13:55:21;;;;;;;1.90;1.35;;;;;;;24.78;49.84;101549.84;4857985;29;20404;-77
2022/09/06 13:57:47;;;;;;;1.83;1.20;;;;;;;24.79;49.60;101550.72;4851548;29;20053;-78
2022/09/06 14:00:13;;;;;;;1.88;1.30;;;;;;;24.77;49.44;101548.13;4843193;29;20051;-77
2022/09/06 14:05:04;;;;;;;1.58;1.20;;;;;;;24.79;49.46;101546.31;4895694;29;20846;-78
2022/09/06 14:07:30;;;;;;;1.92;1.30;;;;;;;24.79;49.65;101554.19;4845919;29;20061;-78
2022/09/06 14:09:55;;;;;;;1.80;1.20;;;;;;;24.80;49.51;101562.94;4846506;29;20057;-78
2022/09/06 14:12:20;;;;;;;1.92;1.30;;;;;;;24.80;49.43;101558.56;4850389;29;20119;-78
2022/09/06 14:14:46;;;;;;;1.73;1.10;;;;;;;24.79;49.42;101564.72;4864996;29;20454;-77
2022/09/06 14:17:11;;;;;;;1.70;1.23;;;;;;;24.79;49.52;101556.84;4864367;29;20061;-77
2022/09/06 14:19:36;;;;;;;1.52;1.25;;;;;;;24.79;49.46;101548.94;4863059;29;20067;-77
2022/09/06 14:22:03;;;;;;;1.65;1.17;;;;;;;24.79;49.41;101541.03;4843695;29;20088;-78
2022/09/06 14:24:29;;;;;;;1.63;1.33;;;;;;;24.79;49.31;101548.94;4845919;29;20056;-77
2022/09/06 14:26:54;;;;;;;1.80;1.17;;;;;;;24.80;49.41;101548.06;4845532;29;20057;-77
2022/09/06 14:29:19;;;;;;;2.17;1.30;;;;;;;24.80;49.17;101539.25;4845205;29;20050;-77
2022/09/06 14:31:47;;;;;;;2.35;1.48;;;;;;;24.80;49.21;101536.63;4859016;29;20121;-77
2022/09/06 14:34:12;;;;;;;3.75;1.17;;;;;;;24.82;49.30;101534.81;4856118;29;20054;-78
2022/09/06 14:36:38;;;;;;;1.40;1.05;;;;;;;24.81;49.21;101536.59;4843151;29;20056;-77
2022/09/06 14:39:04;;;;;;;1.88;1.15;;;;;;;24.82;49.20;101533.06;4846397;29;20148;-78
2022/09/06 14:41:29;;;;;;;2.17;1.40;;;;;;;24.83;49.18;101529.53;4862113;29;20081;-77
2022/09/06 14:43:56;;;;;;;2.25;1.30;;;;;;;24.84;49.12;101533.00;4855030;29;20132;-77
2022/09/06 14:46:23;;;;;;;1.67;1.33;;;;;;;24.86;49.16;101535.59;4861561;29;20479;-77
2022/09/06 14:48:56;;;;;;;1.60;1.20;;;;;;;24.84;49.13;101531.22;4868739;29;20053;-77
2022/09/06 14:51:22;;;;;;;1.80;1.30;;;;;;;24.84;49.12;101530.38;4877500;29;20057;-77
2022/09/06 14:53:50;;;;;;;2.05;1.30;;;;;;;24.84;49.26;101535.63;4871050;29;20133;-77
2022/09/06 14:56:17;;;;;;;2.80;1.20;;;;;;;24.84;49.23;101536.50;4877109;29;20137;-77